< < Back
Terminal Aerodrome Forecast


Current Version              Previous Versions:   1  2  3  4  5  6  7  8  9  

Terminal Aerodrome Forecast

925
FTUS42 KJAX 122203 AAC
TAFJAX
TAF AMD
KJAX 122203Z 1222/1318 25013G27KT P6SM SCT060
     FM122300 24010KT P6SM SCT060
     FM130800 31007KT P6SM SKC
     FM131600 34012KT P6SM SKC=

Latest METAR

734
SAUS80 KWBC 122200
MTRJAX
METAR KJAX 122156Z 25016G24KT 10SM FEW060 22/10 A3006 RMK AO2 PK WND
25029/2058 SLP179 T02220100


USA.gov is the U.S. government's official web portal to all federal, state and local government web resources and services.